新潟空港の過去48時間の天気

新潟空港 (Niigata)

現在時刻: 4/25 23:43 JST (4/25 14:43 UTC) 以下の時間は現地時間です。

過去48時間のMETAR気象情報
時間 風向 風速(m/s) 視程 気温(℃) 湿度(%) 気圧(hPa) 天気現象
25 21:00 南西 7 10km以上 12 88 1007
25 20:00 南西 9 10km以上 12 94 1006
25 19:00 南西 9 10km以上 12 94 1004
25 18:02 南西 9 10km以上 13 94 1003
25 18:00 南西 9 10km以上 12 100 1003
25 17:00 南西 8 10km以上 13 94 1002
25 16:23 南南西 8 10km以上 14 94 1001
25 16:00 南西 7 8,000m 15 94 1001
25 15:00 南西 6 7,000m 15 100 1000 弱いしゅう雨
25 14:00 南西 7 5,000m 15 100 1000 弱いしゅう雨 もや
25 13:00 南西 4 4,500m 17 100 1000 弱いしゅう雨 もや
25 12:00 西 3 3,000m 15 100 1000 弱いしゅう雨 もや
25 11:00 北東 3 10km以上 15 100 1000 弱い雨
25 10:18 北北東 3 5,000m 14 100 1000 もや
25 10:00 2 3,500m 14 100 1000 弱い雨 もや
25 09:47 北北東 2 4,000m 14 100 1000 弱い雨 部分霧 もや
25 09:23 不定 1 5,000m 15 100 1000 弱い雨 部分霧 もや
25 09:00 不定 1 4,000m 15 100 1001 弱い雨 部分霧 もや
25 08:48 不定 1 4,000m 15 100 1001 弱い雨 もや
25 08:00 1 5,000m 15 100 1001 弱い雨 もや
25 07:47 1 4,000m 15 100 1001 弱い雨 もや
25 07:00 東南東 1 6,000m 15 100 1001 弱い雨
25 06:10 2 6,000m 14 100 1001 弱い雨
24 21:14 2 6,000m 15 100 1007 弱い雨
24 21:00 2 4,000m 15 100 1007 雨 もや
24 20:00 3 7,000m 15 100 1007 弱い雨
24 19:00 4 6,000m 15 100 1007 弱い雨
24 18:00 3 5,000m 15 100 1008 弱い雨 もや
24 17:00 3 7,000m 16 94 1008 弱い雨
24 16:00 北東 3 5,000m 14 100 1008 弱い雨 もや
24 15:00 北東 4 5,000m 14 100 1009 弱い雨 もや
24 14:00 北東 4 5,000m 14 100 1010 弱い雨 もや
24 13:00 北東 4 6,000m 14 100 1011 弱い雨
24 12:00 北東 3 7,000m 14 94 1012 弱い雨
24 11:00 北北東 2 10km以上 14 100 1013 弱い雨
24 10:00 静穏 0 10km以上 15 94 1013 弱い雨
24 09:00 2 10km以上 15 88 1014 弱い雨
24 08:00 3 10km以上 14 94 1014 弱い雨
24 07:00 北北東 2 8,000m 13 100 1014 弱い雨
24 06:10 1 8,000m 13 100 1015 弱い雨
RJSN 251200Z 23014KT 9999 FEW010 SCT020 BKN025 12/10 Q1007
RJSN 251100Z 23017KT 9999 FEW010 SCT015 BKN020 12/11 Q1006
RJSN 251000Z 23018KT 9999 FEW007 BKN010 BKN015 12/11 Q1004
RJSN 250902Z 23017G27KT 9999 FEW006 BKN008 BKN015 13/12 Q1003 RMK 1ST006 5CU008 7CU015 A2964
RJSN 250900Z 23018KT 9999 FEW006 BKN008 BKN015 12/12 Q1003
RJSN 250800Z 22015KT 9999 FEW006 SCT010 BKN020 13/12 Q1002
RJSN 250723Z 21015KT 9999 FEW005 SCT008 BKN015 14/13 Q1001 RMK 2ST005 4CU008 7CU015 A2958
RJSN 250700Z 22014KT 8000 FEW004 BKN007 BKN015 15/14 Q1001
RJSN 250600Z 22012KT 7000 -SHRA FEW004 BKN008 BKN015 15/15 Q1000
RJSN 250500Z 23014KT 5000 -SHRA BR FEW004 BKN006 BKN010 15/15 Q1000
RJSN 250400Z 23008KT 4500 -SHRA BR FEW003 SCT005 BKN007 17/17 Q1000
RJSN 250300Z 28006KT 3000 -SHRA BR FEW008 BKN020 BKN030 15/15 Q1000
RJSN 250200Z 05005KT 9999 -RA FEW010 SCT030 BKN050 15/15 Q1000
RJSN 250118Z 03005KT 5000 BR SCT001 BKN040 BKN070 14/14 Q1000 RMK 3ST001 5SC040 7AC070 A2954 9999S
RJSN 250100Z 36003KT 3500 -RA BR FEW003 SCT010 BKN040 14/14 Q1000
RJSN 250047Z 03004KT 4000 R28/P2000N -RA PRFG BR FEW005 SCT010 BKN040 14/14 Q1000 RMK 1ST005 3ST010 5SC040 A2955 1500N FG BANK N
RJSN 250023Z VRB02KT 5000 -RA PRFG BR FEW005 SCT030 BKN040 15/15 Q1000 RMK 1ST005 3SC030 6SC040 A2955 2500NE FG BANK NE
RJSN 250000Z VRB01KT 4000 -RA PRFG BR FEW010 SCT030 BKN040 15/15 Q1001
RJSN 242348Z VRB01KT 4000 -RA BR FEW010 SCT030 BKN040 15/15 Q1001 RMK 2ST010 3SC030 6SC040 A2956
RJSN 242300Z 09002KT 5000 -RA BR FEW010 SCT030 OVC040 15/15 Q1001
RJSN 242247Z 09002KT 4000 -RA BR FEW010 BKN030 OVC040 15/15 Q1001 RMK 2ST010 5SC030 8NS040 A2957
RJSN 242200Z 12002KT 6000 -RA FEW010 SCT030 OVC040 15/15 Q1001
RJSN 242110Z 10003KT 6000 -RA FEW010 SCT030 OVC040 14/14 Q1001 RMK 1ST010 3SC030 8NS040 A2958
RJSN 241214Z 10004KT 6000 -RA FEW010 SCT030 OVC060 15/15 Q1007 RMK 1ST010 4SC030 8NS060 A2975
RJSN 241200Z 09003KT 4000 RA BR FEW010 SCT030 OVC060 15/15 Q1007
RJSN 241100Z 10005KT 7000 -RA FEW010 BKN060 OVC080 15/15 Q1007
RJSN 241000Z 09007KT 6000 -RA FEW010 SCT030 OVC060 15/15 Q1007
RJSN 240900Z 09005KT 5000 -RA BR FEW010 SCT040 OVC070 15/15 Q1008
RJSN 240800Z 08006KT 7000 -RA FEW010 SCT050 OVC070 16/15 Q1008
RJSN 240700Z 05006KT 5000 -RA BR FEW010 SCT050 OVC070 14/14 Q1008
RJSN 240600Z 04008KT 5000 -RA BR FEW010 SCT040 OVC070 14/14 Q1009
RJSN 240500Z 04008KT 5000 -RA BR FEW010 SCT040 OVC070 14/14 Q1010
RJSN 240400Z 04008KT 6000 -RA FEW010 SCT040 OVC060 14/14 Q1011
RJSN 240300Z 04006KT 7000 -RA FEW020 BKN050 OVC070 14/13 Q1012
RJSN 240200Z 02004KT 9999 -RA FEW030 BKN050 OVC080 14/14 Q1013
RJSN 240100Z 00000KT 9999 -RA FEW030 BKN050 OVC080 15/14 Q1013
RJSN 240000Z 10004KT 070V130 9999 -RA FEW030 BKN050 OVC080 15/13 Q1014
RJSN 232300Z 08005KT 9999 -RA FEW030 BKN050 OVC080 14/13 Q1014
RJSN 232200Z 03003KT 8000 -RA FEW030 BKN050 13/13 Q1014
RJSN 232110Z 08002KT 8000 -RA FEW030 BKN050 13/13 Q1015 RMK 1SC030 7SC050 A2997